createdAt,value
2023-03-19T00:02:16.629Z,4.97
2023-03-19T00:07:21.886Z,3.35
2023-03-19T00:12:25.021Z,3.90
2023-03-19T00:17:28.119Z,3.55
2023-03-19T00:22:32.629Z,4.13
2023-03-19T00:27:36.222Z,2.42
2023-03-19T00:32:39.562Z,2.78
2023-03-19T00:37:44.099Z,7.18
2023-03-19T00:42:47.260Z,4.13
2023-03-19T00:47:50.405Z,5.75
2023-03-19T00:52:54.889Z,5.85
2023-03-19T00:57:58.000Z,4.97
2023-03-19T01:03:01.482Z,3.13
2023-03-19T01:08:07.412Z,8.18
2023-03-19T01:13:10.506Z,5.20
2023-03-19T01:18:13.739Z,6.32
2023-03-19T01:23:18.318Z,4.82
2023-03-19T01:28:22.340Z,3.42
2023-03-19T01:33:25.812Z,7.05
2023-03-19T01:38:38.839Z,5.07
2023-03-19T01:43:46.958Z,4.13
2023-03-19T01:49:12.320Z,4.32
2023-03-19T01:54:20.654Z,4.25
2023-03-19T01:59:31.892Z,7.03
2023-03-19T02:04:54.820Z,6.15
2023-03-19T02:10:00.632Z,4.63
2023-03-19T02:15:05.157Z,6.50
2023-03-19T02:20:09.792Z,4.53
2023-03-19T02:25:16.506Z,4.70
2023-03-19T02:30:25.252Z,6.03
2023-03-19T02:35:32.696Z,7.60
2023-03-19T02:40:37.996Z,6.65
2023-03-19T02:45:42.901Z,5.55
2023-03-19T02:50:46.246Z,6.15
2023-03-19T02:55:49.346Z,5.95
2023-03-19T03:00:53.854Z,6.43
2023-03-19T03:05:57.097Z,5.35
2023-03-19T03:11:00.147Z,5.88
2023-03-19T03:16:04.681Z,6.28
2023-03-19T03:21:08.190Z,7.75
2023-03-19T03:26:11.297Z,7.85
2023-03-19T03:31:15.837Z,6.82
2023-03-19T03:36:19.107Z,10.07
2023-03-19T03:41:22.383Z,9.20
2023-03-19T03:46:27.432Z,10.35
2023-03-19T03:51:30.638Z,7.32
2023-03-19T03:56:34.348Z,7.68
2023-03-19T04:01:38.993Z,10.50
2023-03-19T04:06:42.249Z,6.53
2023-03-19T04:11:53.521Z,8.32
2023-03-19T04:16:58.014Z,8.85
2023-03-19T04:22:03.471Z,8.18
2023-03-19T04:27:08.428Z,9.30
2023-03-19T04:32:15.317Z,8.30
2023-03-19T04:37:18.829Z,9.23
2023-03-19T04:42:26.309Z,12.60
2023-03-19T04:47:53.977Z,12.32
2023-03-19T04:52:57.615Z,13.73
2023-03-19T04:58:02.045Z,13.70
2023-03-19T05:03:09.544Z,15.98
2023-03-19T05:08:13.767Z,16.60
2023-03-19T05:13:19.285Z,15.18
2023-03-19T05:18:29.301Z,19.60
2023-03-19T05:23:32.773Z,15.68
2023-03-19T05:28:43.828Z,17.08
2023-03-19T05:33:49.713Z,23.10
2023-03-19T05:38:53.407Z,22.45
2023-03-19T05:44:04.978Z,21.17
2023-03-19T05:49:28.188Z,19.88
2023-03-19T05:54:31.386Z,20.92
2023-03-19T05:59:43.517Z,19.40
2023-03-19T06:05:13.973Z,21.70
2023-03-19T06:10:17.630Z,21.90
2023-03-19T06:15:22.895Z,25.90
2023-03-19T06:20:30.498Z,25.38
2023-03-19T06:25:33.891Z,21.08
2023-03-19T06:30:37.019Z,21.55
2023-03-19T06:35:47.203Z,22.35
2023-03-19T06:40:50.454Z,18.08
2023-03-19T06:45:53.612Z,21.17
2023-03-19T06:50:58.234Z,19.05
2023-03-19T06:56:01.436Z,18.02
2023-03-19T07:01:05.015Z,17.30
2023-03-19T07:06:09.620Z,17.30
2023-03-19T07:11:13.344Z,16.60
2023-03-19T07:16:16.506Z,16.58
2023-03-19T07:21:20.940Z,14.55
2023-03-19T07:26:24.073Z,11.73
2023-03-19T07:31:27.208Z,14.55
2023-03-19T07:36:31.816Z,15.60
2023-03-19T07:41:35.006Z,16.27
2023-03-19T07:46:38.136Z,15.20
2023-03-19T07:51:42.592Z,14.88
2023-03-19T07:56:46.060Z,18.25
2023-03-19T08:01:49.212Z,15.13
2023-03-19T08:06:53.744Z,18.33
2023-03-19T08:11:56.953Z,15.18
2023-03-19T08:17:00.232Z,15.85
2023-03-19T08:22:04.800Z,15.88
2023-03-19T08:27:08.203Z,19.98
2023-03-19T08:32:11.428Z,11.05
2023-03-19T08:37:15.985Z,17.23
2023-03-19T08:42:19.169Z,15.50
2023-03-19T08:47:24.405Z,17.35
2023-03-19T08:52:28.916Z,12.10
2023-03-19T08:57:32.167Z,11.88
2023-03-19T09:02:35.386Z,11.85
2023-03-19T09:07:39.877Z,14.77
2023-03-19T09:12:43.088Z,14.32
2023-03-19T09:17:46.212Z,15.77
2023-03-19T09:22:50.782Z,15.35
2023-03-19T09:27:53.903Z,14.88
2023-03-19T09:32:57.067Z,16.48
2023-03-19T09:38:02.780Z,15.82
2023-03-19T09:43:11.287Z,19.05
2023-03-19T09:48:18.149Z,18.90
2023-03-19T09:53:29.725Z,21.77
2023-03-19T09:58:34.498Z,20.20
2023-03-19T10:03:44.985Z,24.17
2023-03-19T10:08:56.770Z,24.15
2023-03-19T10:14:03.549Z,27.60
2023-03-19T10:19:06.860Z,37.47
2023-03-19T10:24:13.556Z,29.77
2023-03-19T10:29:19.407Z,26.92
2023-03-19T10:34:26.016Z,20.80
2023-03-19T10:39:30.842Z,25.88
2023-03-19T10:44:36.117Z,24.75
2023-03-19T10:49:39.322Z,20.45
2023-03-19T10:54:44.942Z,20.67
2023-03-19T10:59:48.285Z,28.98
2023-03-19T11:05:06.721Z,23.27
2023-03-19T11:10:15.668Z,24.13
2023-03-19T11:15:21.271Z,21.92
2023-03-19T11:20:27.821Z,24.13
2023-03-19T11:25:35.620Z,27.45
2023-03-19T11:30:41.107Z,26.95
2023-03-19T11:35:50.447Z,22.98
2023-03-19T11:40:57.814Z,21.25
2023-03-19T11:46:07.359Z,26.85
2023-03-19T11:51:12.365Z,25.13
2023-03-19T11:56:20.081Z,27.42
2023-03-19T12:01:31.515Z,24.45
2023-03-19T12:06:40.642Z,34.38
2023-03-19T12:11:50.450Z,35.70
2023-03-19T12:17:04.337Z,33.28
2023-03-19T12:22:13.491Z,32.40
2023-03-19T12:27:23.091Z,29.63
2023-03-19T12:32:37.986Z,30.90
2023-03-19T12:37:43.630Z,24.48
2023-03-19T12:42:48.222Z,28.25
2023-03-19T12:47:51.689Z,30.20
2023-03-19T12:52:58.269Z,32.83
2023-03-19T12:58:05.044Z,28.00
2023-03-19T13:03:10.542Z,28.05
2023-03-19T13:08:16.966Z,30.48
2023-03-19T13:13:28.408Z,24.15
2023-03-19T13:18:38.275Z,23.38
2023-03-19T13:23:42.995Z,26.77
2023-03-19T13:29:00.390Z,23.40
2023-03-19T13:34:04.803Z,30.25
2023-03-19T13:39:13.657Z,25.42
2023-03-19T13:44:25.777Z,27.10
2023-03-19T13:49:29.768Z,28.77
2023-03-19T13:54:34.610Z,24.38
2023-03-19T13:59:39.677Z,20.08
2023-03-19T14:04:50.822Z,18.83
2023-03-19T14:10:05.435Z,18.67
2023-03-19T14:15:18.434Z,20.83
2023-03-19T14:20:28.390Z,23.10
2023-03-19T14:26:07.253Z,17.45
2023-03-19T14:31:19.925Z,18.23
2023-03-19T14:36:24.145Z,16.52
2023-03-19T14:41:28.575Z,16.77
2023-03-19T14:46:38.180Z,22.65
2023-03-19T14:51:49.833Z,19.90
2023-03-19T14:56:52.949Z,18.92
2023-03-19T15:01:58.280Z,20.13
2023-03-19T15:07:02.120Z,23.40
2023-03-19T15:12:31.442Z,25.15
2023-03-19T15:17:38.759Z,25.08
2023-03-19T15:22:42.106Z,23.98
2023-03-19T15:27:45.373Z,24.52
2023-03-19T15:33:04.332Z,24.20
2023-03-19T15:38:11.298Z,24.48
2023-03-19T15:43:14.600Z,22.13
2023-03-19T15:48:21.641Z,24.30
2023-03-19T15:53:26.157Z,24.02
2023-03-19T15:58:30.840Z,21.27
2023-03-19T16:03:38.892Z,25.33
2023-03-19T16:08:47.124Z,17.98
2023-03-19T16:13:55.636Z,21.20
2023-03-19T16:19:00.521Z,18.92
2023-03-19T16:24:05.041Z,21.98
2023-03-19T16:29:17.318Z,22.98
2023-03-19T16:34:32.290Z,19.95
2023-03-19T16:39:36.042Z,17.98
2023-03-19T16:44:40.680Z,18.80
2023-03-19T16:49:47.052Z,15.45
2023-03-19T16:54:50.506Z,17.48
2023-03-19T16:59:53.846Z,17.33
2023-03-19T17:04:58.286Z,21.35
2023-03-19T17:10:01.459Z,19.98
2023-03-19T17:15:04.921Z,20.45
2023-03-19T17:20:15.247Z,23.77
2023-03-19T17:25:19.213Z,12.93
2023-03-19T17:30:22.497Z,25.75
2023-03-19T17:35:27.300Z,29.85
2023-03-19T17:40:30.405Z,24.60
2023-03-19T17:45:33.790Z,21.17
2023-03-19T17:50:38.356Z,19.20
2023-03-19T17:55:41.491Z,21.20
2023-03-19T18:00:44.681Z,23.85
2023-03-19T18:05:50.586Z,20.45
2023-03-19T18:10:53.712Z,24.35
2023-03-19T18:15:57.917Z,28.17
2023-03-19T18:21:02.429Z,36.10
2023-03-19T18:26:05.737Z,37.88
2023-03-19T18:31:12.639Z,40.50
2023-03-19T18:36:19.346Z,43.58
2023-03-19T18:41:23.409Z,42.78
2023-03-19T18:46:39.833Z,44.35
2023-03-19T18:52:00.587Z,50.17
2023-03-19T18:57:05.777Z,42.13
2023-03-19T19:02:22.727Z,44.97
2023-03-19T19:07:27.244Z,47.95
2023-03-19T19:12:30.398Z,42.67
2023-03-19T19:17:35.206Z,46.45
2023-03-19T19:22:39.802Z,36.97
2023-03-19T19:27:43.256Z,34.70
2023-03-19T19:32:47.267Z,46.88
2023-03-19T19:37:51.843Z,35.47
2023-03-19T19:42:55.211Z,41.92
2023-03-19T19:47:58.393Z,39.72
2023-03-19T19:53:03.341Z,40.67
2023-03-19T19:58:08.666Z,42.05
2023-03-19T20:03:19.449Z,48.92
2023-03-19T20:08:23.931Z,36.17
2023-03-19T20:13:28.312Z,33.88
2023-03-19T20:18:35.572Z,31.27
2023-03-19T20:23:40.639Z,29.27
2023-03-19T20:28:44.818Z,28.05
2023-03-19T20:33:47.971Z,26.67
2023-03-19T20:38:52.602Z,29.80
2023-03-19T20:43:56.019Z,27.80
2023-03-19T20:49:00.340Z,27.17
2023-03-19T20:54:05.478Z,28.30
2023-03-19T20:59:10.953Z,27.75
2023-03-19T21:04:18.889Z,29.75
2023-03-19T21:09:24.037Z,30.27
2023-03-19T21:14:27.682Z,29.52
2023-03-19T21:19:30.813Z,33.20
2023-03-19T21:24:35.300Z,33.47
2023-03-19T21:29:38.997Z,28.20
2023-03-19T21:34:42.127Z,32.90
2023-03-19T21:39:47.582Z,29.25
2023-03-19T21:44:52.298Z,32.55
2023-03-19T21:49:55.460Z,31.40
2023-03-19T21:55:00.015Z,33.60
2023-03-19T22:00:04.290Z,31.90
2023-03-19T22:05:16.010Z,24.25
2023-03-19T22:10:21.389Z,24.67
2023-03-19T22:15:27.401Z,24.33
2023-03-19T22:20:30.567Z,20.67
2023-03-19T22:25:39.288Z,26.25
2023-03-19T22:30:44.021Z,26.38
2023-03-19T22:35:49.421Z,21.73
2023-03-19T22:40:54.873Z,20.70
2023-03-19T22:45:59.662Z,21.00
2023-03-19T22:51:03.130Z,28.77
2023-03-19T22:56:08.081Z,39.22
2023-03-19T23:01:28.939Z,39.42
2023-03-19T23:06:32.125Z,39.22
2023-03-19T23:11:39.406Z,34.08
2023-03-19T23:16:43.489Z,34.35
2023-03-19T23:21:46.551Z,31.17
2023-03-19T23:26:51.676Z,32.10
2023-03-19T23:31:55.148Z,33.53
2023-03-19T23:36:59.959Z,33.22
2023-03-19T23:42:04.490Z,30.15
2023-03-19T23:47:07.690Z,28.13
2023-03-19T23:52:13.835Z,27.92
2023-03-19T23:57:18.298Z,28.63
